createdAt,value
2018-06-09T00:00:38.210Z,1008.53
2018-06-09T00:01:47.642Z,1008.53
2018-06-09T00:02:57.343Z,1008.51
2018-06-09T00:04:07.035Z,1008.51
2018-06-09T00:05:16.708Z,1008.5
2018-06-09T00:06:26.654Z,1008.51
2018-06-09T00:07:36.094Z,1008.47
2018-06-09T00:08:46.073Z,1008.54
2018-06-09T00:09:55.231Z,1008.51
2018-06-09T00:11:04.394Z,1008.49
2018-06-09T00:12:13.807Z,1008.51
2018-06-09T00:13:23.209Z,1008.49
2018-06-09T00:14:32.653Z,1008.46
2018-06-09T00:15:42.576Z,1008.51
2018-06-09T00:16:51.257Z,1008.49
2018-06-09T00:18:01.206Z,1008.51
2018-06-09T00:19:11.127Z,1008.47
2018-06-09T00:20:20.603Z,1008.44
2018-06-09T00:21:30.268Z,1008.45
2018-06-09T00:22:39.675Z,1008.41
2018-06-09T00:23:49.654Z,1008.42
2018-06-09T00:24:59.328Z,1008.42
2018-06-09T00:26:08.759Z,1008.36
2018-06-09T00:27:18.816Z,1008.37
2018-06-09T00:28:27.972Z,1008.38
2018-06-09T00:29:37.152Z,1008.35
2018-06-09T00:30:46.551Z,1008.34
2018-06-09T00:31:56.222Z,1008.34
2018-06-09T00:33:05.625Z,1008.31
2018-06-09T00:34:15.305Z,1008.28
2018-06-09T00:35:24.715Z,1008.3
2018-06-09T00:36:34.470Z,1008.29
2018-06-09T00:37:43.377Z,1008.27
2018-06-09T00:38:52.789Z,1008.3
2018-06-09T00:40:02.271Z,1008.33
2018-06-09T00:41:11.160Z,1008.32
2018-06-09T00:42:20.331Z,1008.35
2018-06-09T00:43:29.256Z,1008.33
2018-06-09T00:44:37.895Z,1008.34
2018-06-09T00:45:47.329Z,1008.39
2018-06-09T00:46:57.014Z,1008.4
2018-06-09T00:48:05.958Z,1008.36
2018-06-09T00:49:15.410Z,1008.38
2018-06-09T00:50:25.087Z,1008.34
2018-06-09T00:51:34.503Z,1008.34
2018-06-09T00:52:43.466Z,1008.34
2018-06-09T00:53:53.397Z,1008.36
2018-06-09T00:55:02.567Z,1008.35
2018-06-09T00:56:12.234Z,1008.36
2018-06-09T00:57:22.168Z,1008.35
2018-06-09T00:58:31.583Z,1008.35
2018-06-09T00:59:40.740Z,1008.31
2018-06-09T01:00:50.666Z,1008.31
2018-06-09T01:02:00.349Z,1008.31
2018-06-09T01:03:09.511Z,1008.33
2018-06-09T01:04:18.934Z,1008.29
2018-06-09T01:05:28.366Z,1008.25
2018-06-09T01:06:38.064Z,1008.3
2018-06-09T01:07:47.719Z,1008.27
2018-06-09T01:08:57.394Z,1008.26
2018-06-09T01:10:06.574Z,1008.23
2018-06-09T01:11:15.472Z,1008.25
2018-06-09T01:12:24.653Z,1008.23
2018-06-09T01:13:34.066Z,1008.26
2018-06-09T01:14:42.970Z,1008.27
2018-06-09T01:15:52.644Z,1008.27
2018-06-09T01:17:01.538Z,1008.28
2018-06-09T01:18:10.991Z,1008.23
2018-06-09T01:19:20.695Z,1008.21
2018-06-09T01:20:30.117Z,1008.21
2018-06-09T01:21:39.534Z,1008.16
2018-06-09T01:22:48.695Z,1008.22
2018-06-09T01:23:57.845Z,1008.18
2018-06-09T01:25:07.511Z,1008.2
2018-06-09T01:26:17.204Z,1008.22
2018-06-09T01:27:26.652Z,1008.24
2018-06-09T01:28:36.083Z,1008.25
2018-06-09T01:29:45.246Z,1008.21
2018-06-09T01:30:54.403Z,1008.23
2018-06-09T01:32:04.243Z,1008.27
2018-06-09T01:33:13.924Z,1008.28
2018-06-09T01:34:23.082Z,1008.3
2018-06-09T01:35:31.986Z,1008.29
2018-06-09T01:36:41.673Z,1008.28
2018-06-09T01:37:51.105Z,1008.27
2018-06-09T01:39:00.279Z,1008.28
2018-06-09T01:40:09.986Z,1008.24
2018-06-09T01:41:19.153Z,1008.26
2018-06-09T01:42:28.354Z,1008.22
2018-06-09T01:43:37.776Z,1008.22
2018-06-09T01:44:46.948Z,1008.22
2018-06-09T01:45:55.906Z,1008.23
2018-06-09T01:47:06.011Z,1008.23
2018-06-09T01:48:15.690Z,1008.24
2018-06-09T01:49:24.639Z,1008.24
2018-06-09T01:50:34.074Z,1008.24
2018-06-09T01:51:42.982Z,1008.27
2018-06-09T01:52:52.164Z,1008.28
2018-06-09T01:54:01.874Z,1008.28
2018-06-09T01:55:11.035Z,1008.29
2018-06-09T01:56:20.194Z,1008.25
2018-06-09T01:57:28.836Z,1008.24
2018-06-09T01:58:38.268Z,1008.29
2018-06-09T01:59:47.679Z,1008.3
2018-06-09T02:00:57.093Z,1008.35
2018-06-09T02:02:06.000Z,1008.33
2018-06-09T02:03:14.654Z,1008.27
2018-06-09T02:04:23.813Z,1008.32
2018-06-09T02:05:32.821Z,1008.24
2018-06-09T02:06:42.257Z,1008.23
2018-06-09T02:07:51.409Z,1008.24
2018-06-09T02:09:01.076Z,1008.24
2018-06-09T02:10:10.251Z,1008.2
2018-06-09T02:11:20.195Z,1008.21
2018-06-09T02:12:29.863Z,1008.27
2018-06-09T02:13:39.285Z,1008.29
2018-06-09T02:14:48.961Z,1008.32
2018-06-09T02:15:58.631Z,1008.32
2018-06-09T02:17:07.839Z,1008.31
2018-06-09T02:18:17.053Z,1008.35
2018-06-09T02:19:26.474Z,1008.35
2018-06-09T02:20:36.147Z,1008.43
2018-06-09T02:21:45.822Z,1008.44
2018-06-09T02:22:54.474Z,1008.43
2018-06-09T02:24:03.901Z,1008.4
2018-06-09T02:25:13.578Z,1008.4
2018-06-09T02:26:22.752Z,1008.39
2018-06-09T02:27:32.450Z,1008.35
2018-06-09T02:28:42.127Z,1008.33
2018-06-09T02:29:51.535Z,1008.25
2018-06-09T02:31:00.700Z,1008.23
2018-06-09T02:32:10.370Z,1008.29
2018-06-09T02:33:19.553Z,1008.26
2018-06-09T02:34:29.265Z,1008.26
2018-06-09T02:35:39.214Z,1008.28
2018-06-09T02:36:48.634Z,1008.32
2018-06-09T02:37:57.853Z,1008.31
2018-06-09T02:39:07.521Z,1008.31
2018-06-09T02:40:16.718Z,1008.27
2018-06-09T02:41:25.905Z,1008.28
2018-06-09T02:42:35.590Z,1008.27
2018-06-09T02:43:45.304Z,1008.24
2018-06-09T02:44:54.761Z,1008.22
2018-06-09T02:46:04.702Z,1008.27
2018-06-09T02:47:14.384Z,1008.26
2018-06-09T02:48:23.795Z,1008.3
2018-06-09T02:49:33.740Z,1008.27
2018-06-09T02:50:43.141Z,1008.29
2018-06-09T02:51:52.559Z,1008.33
2018-06-09T02:53:02.249Z,1008.32
2018-06-09T02:54:11.923Z,1008.31
2018-06-09T02:55:21.858Z,1008.29
2018-06-09T02:56:31.037Z,1008.28
2018-06-09T02:57:40.968Z,1008.24
2018-06-09T02:58:50.410Z,1008.24
2018-06-09T03:00:00.134Z,1008.28
2018-06-09T03:01:09.307Z,1008.28
2018-06-09T03:02:19.241Z,1008.27
2018-06-09T03:03:28.655Z,1008.24
2018-06-09T03:04:38.109Z,1008.27
2018-06-09T03:05:47.533Z,1008.25
2018-06-09T03:06:57.237Z,1008.23
2018-06-09T03:08:06.446Z,1008.22
2018-06-09T03:09:15.875Z,1008.21
2018-06-09T03:10:25.040Z,1008.21
2018-06-09T03:11:34.463Z,1008.23
2018-06-09T03:12:43.880Z,1008.24
2018-06-09T03:13:53.318Z,1008.24
2018-06-09T03:15:03.262Z,1008.24
2018-06-09T03:16:13.199Z,1008.28
2018-06-09T03:17:22.892Z,1008.25
2018-06-09T03:18:32.569Z,1008.25
2018-06-09T03:19:42.236Z,1008.24
2018-06-09T03:20:51.663Z,1008.26
2018-06-09T03:22:00.812Z,1008.23
2018-06-09T03:23:09.975Z,1008.25
2018-06-09T03:24:19.129Z,1008.25
2018-06-09T03:25:28.525Z,1008.25
2018-06-09T03:26:38.470Z,1008.2
2018-06-09T03:27:48.433Z,1008.23
2018-06-09T03:28:57.850Z,1008.21
2018-06-09T03:30:07.292Z,1008.19
2018-06-09T03:31:16.208Z,1008.24
2018-06-09T03:32:25.882Z,1008.26
2018-06-09T03:33:35.442Z,1008.28
2018-06-09T03:34:44.886Z,1008.27
2018-06-09T03:35:54.325Z,1008.29
2018-06-09T03:37:03.742Z,1008.33
2018-06-09T03:38:13.154Z,1008.3
2018-06-09T03:39:22.623Z,1008.22
2018-06-09T03:40:32.296Z,1008.25
2018-06-09T03:41:41.720Z,1008.25
2018-06-09T03:42:51.149Z,1008.26
2018-06-09T03:44:00.820Z,1008.27
2018-06-09T03:45:09.978Z,1008.28
2018-06-09T03:46:19.657Z,1008.27
2018-06-09T03:47:28.582Z,1008.31
2018-06-09T03:48:37.743Z,1008.37
2018-06-09T03:49:47.453Z,1008.38
2018-06-09T03:50:57.140Z,1008.4
2018-06-09T03:52:06.554Z,1008.42
2018-06-09T03:53:15.720Z,1008.41
2018-06-09T03:54:25.387Z,1008.46
2018-06-09T03:55:34.808Z,1008.43
2018-06-09T03:56:44.233Z,1008.51
2018-06-09T03:57:53.662Z,1008.51
2018-06-09T03:59:03.114Z,1008.53
2018-06-09T04:00:12.569Z,1008.53
2018-06-09T04:01:22.250Z,1008.48
2018-06-09T04:02:31.478Z,1008.48
2018-06-09T04:03:41.147Z,1008.53
2018-06-09T04:04:50.557Z,1008.47
2018-06-09T04:05:59.713Z,1008.5
2018-06-09T04:07:08.898Z,1008.51
2018-06-09T04:08:17.794Z,1008.53
2018-06-09T04:09:27.720Z,1008.53
2018-06-09T04:10:37.160Z,1008.55
2018-06-09T04:11:46.305Z,1008.53
2018-06-09T04:12:55.477Z,1008.5
2018-06-09T04:14:04.137Z,1008.57
2018-06-09T04:15:13.821Z,1008.53
2018-06-09T04:16:23.301Z,1008.56
2018-06-09T04:17:32.728Z,1008.5
2018-06-09T04:18:41.889Z,1008.5
2018-06-09T04:19:50.794Z,1008.54
2018-06-09T04:20:59.989Z,1008.45
2018-06-09T04:22:09.695Z,1008.52
2018-06-09T04:23:19.413Z,1008.45
2018-06-09T04:24:29.093Z,1008.45
2018-06-09T04:25:38.498Z,1008.43
2018-06-09T04:26:47.919Z,1008.42
2018-06-09T04:27:57.329Z,1008.45
2018-06-09T04:29:06.774Z,1008.48
2018-06-09T04:30:16.475Z,1008.46
2018-06-09T04:31:26.193Z,1008.45
2018-06-09T04:32:35.616Z,1008.43
2018-06-09T04:33:44.797Z,1008.44
2018-06-09T04:34:54.592Z,1008.41
2018-06-09T04:36:03.749Z,1008.43
2018-06-09T04:37:13.204Z,1008.4
2018-06-09T04:38:23.147Z,1008.43
2018-06-09T04:39:32.594Z,1008.48
2018-06-09T04:40:42.513Z,1008.51
2018-06-09T04:41:51.915Z,1008.53
2018-06-09T04:43:01.113Z,1008.52
2018-06-09T04:44:10.548Z,1008.55
2018-06-09T04:45:19.719Z,1008.51
2018-06-09T04:46:28.883Z,1008.45
2018-06-09T04:47:38.817Z,1008.45
2018-06-09T04:48:47.725Z,1008.44
2018-06-09T04:49:56.885Z,1008.47
2018-06-09T04:51:06.436Z,1008.47
2018-06-09T04:52:15.368Z,1008.49
2018-06-09T04:53:24.269Z,1008.51
2018-06-09T04:54:33.179Z,1008.55
2018-06-09T04:55:42.591Z,1008.55
2018-06-09T04:56:51.497Z,1008.59
2018-06-09T04:58:00.407Z,1008.55
2018-06-09T04:59:09.623Z,1008.57
2018-06-09T05:00:19.179Z,1008.56
2018-06-09T05:01:28.597Z,1008.54
2018-06-09T05:02:38.010Z,1008.55
2018-06-09T05:03:47.481Z,1008.51
2018-06-09T05:04:56.637Z,1008.52
2018-06-09T05:06:06.326Z,1008.53
2018-06-09T05:07:15.556Z,1008.56
2018-06-09T05:08:25.092Z,1008.53
2018-06-09T05:09:34.499Z,1008.54
2018-06-09T05:10:43.656Z,1008.51
2018-06-09T05:11:53.599Z,1008.51
2018-06-09T05:13:02.814Z,1008.52
2018-06-09T05:14:12.381Z,1008.51
2018-06-09T05:15:21.792Z,1008.49
2018-06-09T05:16:31.466Z,1008.54
2018-06-09T05:17:40.363Z,1008.52
2018-06-09T05:18:49.785Z,1008.5
2018-06-09T05:19:58.942Z,1008.53
2018-06-09T05:21:08.875Z,1008.55
2018-06-09T05:22:18.293Z,1008.56
2018-06-09T05:23:28.224Z,1008.58
2018-06-09T05:24:37.388Z,1008.57
2018-06-09T05:25:46.799Z,1008.62
2018-06-09T05:26:56.202Z,1008.61
2018-06-09T05:28:05.645Z,1008.56
2018-06-09T05:29:14.757Z,1008.54
2018-06-09T05:30:24.168Z,1008.53
2018-06-09T05:31:33.587Z,1008.51
2018-06-09T05:32:42.480Z,1008.47
2018-06-09T05:33:51.378Z,1008.52
2018-06-09T05:35:00.291Z,1008.54
2018-06-09T05:36:09.465Z,1008.53
2018-06-09T05:37:19.157Z,1008.55
2018-06-09T05:38:28.572Z,1008.55
2018-06-09T05:39:38.240Z,1008.57
2018-06-09T05:40:47.910Z,1008.53
2018-06-09T05:41:57.835Z,1008.55
2018-06-09T05:43:06.982Z,1008.57
2018-06-09T05:44:16.146Z,1008.53
2018-06-09T05:45:25.557Z,1008.54
2018-06-09T05:46:34.719Z,1008.6
2018-06-09T05:47:44.398Z,1008.6
2018-06-09T05:48:53.817Z,1008.6
2018-06-09T05:50:02.969Z,1008.6
2018-06-09T05:51:12.682Z,1008.62
2018-06-09T05:52:22.101Z,1008.59
2018-06-09T05:53:31.757Z,1008.56
2018-06-09T05:54:41.186Z,1008.59
2018-06-09T05:55:50.342Z,1008.57
2018-06-09T05:57:00.015Z,1008.59
2018-06-09T05:58:09.440Z,1008.6
2018-06-09T05:59:19.100Z,1008.62
2018-06-09T06:00:28.258Z,1008.61
2018-06-09T06:01:38.184Z,1008.64
2018-06-09T06:02:48.120Z,1008.65
2018-06-09T06:03:57.615Z,1008.68
2018-06-09T06:05:07.242Z,1008.7
2018-06-09T06:06:17.348Z,1008.72
2018-06-09T06:07:27.043Z,1008.72
2018-06-09T06:08:36.188Z,1008.74
2018-06-09T06:09:45.610Z,1008.77
2018-06-09T06:10:54.776Z,1008.8
2018-06-09T06:12:04.186Z,1008.78
2018-06-09T06:13:13.337Z,1008.79
2018-06-09T06:14:22.742Z,1008.78
2018-06-09T06:15:31.643Z,1008.78
2018-06-09T06:16:41.091Z,1008.79
2018-06-09T06:17:50.507Z,1008.77
2018-06-09T06:18:59.686Z,1008.81
2018-06-09T06:20:08.891Z,1008.79
2018-06-09T06:21:17.820Z,1008.79
2018-06-09T06:22:27.571Z,1008.79
2018-06-09T06:23:36.719Z,1008.8
2018-06-09T06:24:46.141Z,1008.83
2018-06-09T06:25:55.556Z,1008.84
2018-06-09T06:27:04.716Z,1008.88
2018-06-09T06:28:14.390Z,1008.9
2018-06-09T06:29:24.314Z,1008.89
2018-06-09T06:30:33.462Z,1008.88
2018-06-09T06:31:42.369Z,1008.84
2018-06-09T06:32:51.811Z,1008.83
2018-06-09T06:34:01.237Z,1008.85
2018-06-09T06:35:10.647Z,1008.84
2018-06-09T06:36:20.587Z,1008.87
2018-06-09T06:37:30.288Z,1008.82
2018-06-09T06:38:39.697Z,1008.88
2018-06-09T06:39:49.114Z,1008.91
2018-06-09T06:40:58.277Z,1008.92
2018-06-09T06:42:07.419Z,1008.89
2018-06-09T06:43:17.092Z,1008.96
2018-06-09T06:44:26.769Z,1008.95
2018-06-09T06:45:35.935Z,1009
2018-06-09T06:46:45.387Z,1009.02
2018-06-09T06:47:55.064Z,1008.98
2018-06-09T06:49:05.002Z,1009.02
2018-06-09T06:50:15.222Z,1009.03
2018-06-09T06:51:24.195Z,1009.03
2018-06-09T06:52:33.853Z,1009.03
2018-06-09T06:53:42.754Z,1009.09
2018-06-09T06:54:51.914Z,1009.07
2018-06-09T06:56:01.337Z,1009.1
2018-06-09T06:57:10.757Z,1009.11
2018-06-09T06:58:19.942Z,1009.15
2018-06-09T06:59:29.370Z,1009.09
2018-06-09T07:00:38.800Z,1009.11
2018-06-09T07:01:48.207Z,1009.16
2018-06-09T07:02:57.107Z,1009.14
2018-06-09T07:04:06.532Z,1009.13
2018-06-09T07:05:16.213Z,1009.1
2018-06-09T07:06:25.888Z,1009.11
2018-06-09T07:07:35.569Z,1009.11
2018-06-09T07:08:44.980Z,1009.09
2018-06-09T07:09:54.388Z,1009.15
2018-06-09T07:11:04.338Z,1009.1
2018-06-09T07:12:14.004Z,1009.07
2018-06-09T07:13:23.423Z,1009.05
2018-06-09T07:14:33.338Z,1009.02
2018-06-09T07:15:42.508Z,1009
2018-06-09T07:16:51.658Z,1008.98
2018-06-09T07:18:01.060Z,1008.98
2018-06-09T07:19:10.999Z,1009.03
2018-06-09T07:20:19.895Z,1009.03
2018-06-09T07:21:29.310Z,1009.04
2018-06-09T07:22:39.021Z,1009.03
2018-06-09T07:23:48.186Z,1009.05
2018-06-09T07:24:57.133Z,1009.04
2018-06-09T07:26:06.292Z,1009.04
2018-06-09T07:27:15.722Z,1009.04
2018-06-09T07:28:25.143Z,1009.04
2018-06-09T07:29:34.800Z,1009.06
2018-06-09T07:30:43.689Z,1009.02
2018-06-09T07:31:53.094Z,1009.02
2018-06-09T07:33:03.026Z,1009.05
2018-06-09T07:34:12.698Z,1009.04
2018-06-09T07:35:22.304Z,1008.99
2018-06-09T07:36:31.454Z,1008.97
2018-06-09T07:37:41.206Z,1008.95
2018-06-09T07:38:50.629Z,1008.92
2018-06-09T07:40:00.066Z,1008.92
2018-06-09T07:41:09.753Z,1008.9
2018-06-09T07:42:18.663Z,1008.89
2018-06-09T07:43:27.565Z,1008.92
2018-06-09T07:44:36.995Z,1008.93
2018-06-09T07:45:46.459Z,1008.93
2018-06-09T07:46:55.356Z,1008.95
2018-06-09T07:48:05.046Z,1008.93
2018-06-09T07:49:14.727Z,1008.97
2018-06-09T07:50:24.494Z,1008.95
2018-06-09T07:51:33.417Z,1008.93
2018-06-09T07:52:42.596Z,1008.99
2018-06-09T07:53:51.762Z,1009.02
2018-06-09T07:55:00.936Z,1008.98
2018-06-09T07:56:10.392Z,1008.98
2018-06-09T07:57:19.798Z,1008.96
2018-06-09T07:58:29.469Z,1009
2018-06-09T07:59:38.915Z,1008.99
2018-06-09T08:00:48.486Z,1008.99
2018-06-09T08:01:58.171Z,1008.98
2018-06-09T08:03:07.658Z,1008.99
2018-06-09T08:04:16.815Z,1008.97
2018-06-09T08:05:25.976Z,1009.03
2018-06-09T08:06:35.643Z,1008.98
2018-06-09T08:07:45.586Z,1009
2018-06-09T08:08:55.255Z,1009.03
2018-06-09T08:10:04.425Z,1009.02
2018-06-09T08:11:14.093Z,1009.03
2018-06-09T08:12:23.525Z,1009.03
2018-06-09T08:13:32.955Z,1009.05
2018-06-09T08:14:42.647Z,1009.01
2018-06-09T08:15:51.545Z,1009.03
2018-06-09T08:17:00.990Z,1009.02
2018-06-09T08:18:10.664Z,1009.04
2018-06-09T08:19:20.072Z,1008.98
2018-06-09T08:20:29.975Z,1009.03
2018-06-09T08:21:39.673Z,1009.05
2018-06-09T08:22:49.373Z,1009.05
2018-06-09T08:23:58.272Z,1009.07
2018-06-09T08:25:07.437Z,1009.07
2018-06-09T08:26:16.847Z,1009.02
2018-06-09T08:27:25.757Z,1009.05
2018-06-09T08:28:35.461Z,1009.04
2018-06-09T08:29:44.630Z,1009.03
2018-06-09T08:30:53.579Z,1009.05
2018-06-09T08:32:03.013Z,1009.02
2018-06-09T08:33:12.952Z,1009
2018-06-09T08:34:22.102Z,1008.96
2018-06-09T08:35:31.010Z,1008.96
2018-06-09T08:36:40.188Z,1008.95
2018-06-09T08:37:49.108Z,1008.96
2018-06-09T08:38:58.812Z,1008.99
2018-06-09T08:40:08.486Z,1008.98
2018-06-09T08:41:18.026Z,1009
2018-06-09T08:42:27.717Z,1008.99
2018-06-09T08:43:36.887Z,1009.03
2018-06-09T08:44:46.851Z,1009.05
2018-06-09T08:45:56.942Z,1009.06
2018-06-09T08:47:06.657Z,1009.08
2018-06-09T08:48:16.335Z,1009.06
2018-06-09T08:49:26.013Z,1009.03
2018-06-09T08:50:35.686Z,1009.06
2018-06-09T08:51:45.613Z,1009.05
2018-06-09T08:52:54.512Z,1009.02
2018-06-09T08:54:03.448Z,1009.06
2018-06-09T08:55:13.371Z,1009.03
2018-06-09T08:56:23.107Z,1009.06
2018-06-09T08:57:32.574Z,1009.08
2018-06-09T08:58:42.039Z,1009.04
2018-06-09T08:59:51.726Z,1009.03
2018-06-09T09:01:01.722Z,1008.98
2018-06-09T09:02:11.148Z,1008.99
2018-06-09T09:03:20.325Z,1008.98
2018-06-09T09:04:29.760Z,1009
2018-06-09T09:05:38.734Z,1009.03
2018-06-09T09:06:48.174Z,1009.02
2018-06-09T09:07:57.352Z,1009
2018-06-09T09:09:06.003Z,1009.01
2018-06-09T09:10:15.436Z,1009.01
2018-06-09T09:11:24.853Z,1009.01
2018-06-09T09:12:34.292Z,1009.01
2018-06-09T09:13:43.714Z,1009.04
2018-06-09T09:14:53.143Z,1009.05
2018-06-09T09:16:02.854Z,1009.04
2018-06-09T09:17:12.688Z,1009.04
2018-06-09T09:18:22.144Z,1009.05
2018-06-09T09:19:31.320Z,1009.03
2018-06-09T09:20:40.488Z,1009.05
2018-06-09T09:21:49.931Z,1009.01
2018-06-09T09:22:59.222Z,1008.99
2018-06-09T09:24:08.386Z,1008.97
2018-06-09T09:25:17.808Z,1008.98
2018-06-09T09:26:27.530Z,1008.94
2018-06-09T09:27:36.696Z,1008.97
2018-06-09T09:28:46.144Z,1008.88
2018-06-09T09:29:55.848Z,1008.91
2018-06-09T09:31:05.097Z,1008.94
2018-06-09T09:32:14.667Z,1008.94
2018-06-09T09:33:24.143Z,1008.96
2018-06-09T09:34:33.833Z,1008.92
2018-06-09T09:35:43.021Z,1008.92
2018-06-09T09:36:52.199Z,1008.92
2018-06-09T09:38:01.874Z,1008.89
2018-06-09T09:39:11.546Z,1008.92
2018-06-09T09:40:21.251Z,1008.86
2018-06-09T09:41:31.264Z,1008.85
2018-06-09T09:42:40.433Z,1008.82
2018-06-09T09:43:49.582Z,1008.84
2018-06-09T09:44:59.032Z,1008.79
2018-06-09T09:46:07.949Z,1008.84
2018-06-09T09:47:17.701Z,1008.8
2018-06-09T09:48:26.878Z,1008.83
2018-06-09T09:49:36.566Z,1008.81
2018-06-09T09:50:46.248Z,1008.83
2018-06-09T09:51:55.951Z,1008.83
2018-06-09T09:53:05.643Z,1008.84
2018-06-09T09:54:15.070Z,1008.83
2018-06-09T09:55:24.498Z,1008.82
2018-06-09T09:56:33.955Z,1008.83
2018-06-09T09:57:43.660Z,1008.83
2018-06-09T09:58:53.341Z,1008.85
2018-06-09T10:00:03.032Z,1008.79
2018-06-09T10:01:12.688Z,1008.82
2018-06-09T10:02:21.877Z,1008.8
2018-06-09T10:03:31.831Z,1008.84
2018-06-09T10:04:40.812Z,1008.83
2018-06-09T10:05:50.343Z,1008.84
2018-06-09T10:07:00.020Z,1008.78
2018-06-09T10:08:09.200Z,1008.78
2018-06-09T10:09:18.914Z,1008.77
2018-06-09T10:10:28.087Z,1008.76
2018-06-09T10:11:37.592Z,1008.71
2018-06-09T10:12:46.742Z,1008.69
2018-06-09T10:13:56.459Z,1008.7
2018-06-09T10:15:05.613Z,1008.69
2018-06-09T10:16:14.889Z,1008.68
2018-06-09T10:17:24.571Z,1008.73
2018-06-09T10:18:33.521Z,1008.7
2018-06-09T10:19:42.963Z,1008.64
2018-06-09T10:20:52.391Z,1008.62
2018-06-09T10:22:02.226Z,1008.62
2018-06-09T10:23:11.709Z,1008.68
2018-06-09T10:24:21.387Z,1008.7
2018-06-09T10:25:30.573Z,1008.73
2018-06-09T10:26:39.740Z,1008.72
2018-06-09T10:27:49.470Z,1008.73
2018-06-09T10:28:59.389Z,1008.73
2018-06-09T10:30:08.593Z,1008.68
2018-06-09T10:31:17.755Z,1008.7
2018-06-09T10:32:27.503Z,1008.64
2018-06-09T10:33:36.944Z,1008.68
2018-06-09T10:34:46.649Z,1008.62
2018-06-09T10:35:56.693Z,1008.62
2018-06-09T10:37:06.136Z,1008.59
2018-06-09T10:38:16.302Z,1008.58
2018-06-09T10:39:25.966Z,1008.59
2018-06-09T10:40:35.680Z,1008.55
2018-06-09T10:41:45.103Z,1008.55
2018-06-09T10:42:54.528Z,1008.6
2018-06-09T10:44:03.947Z,1008.55
2018-06-09T10:45:13.118Z,1008.57
2018-06-09T10:46:22.749Z,1008.59
2018-06-09T10:47:32.427Z,1008.59
2018-06-09T10:48:41.581Z,1008.58
2018-06-09T10:49:51.257Z,1008.58
2018-06-09T10:51:00.150Z,1008.55
2018-06-09T10:52:09.331Z,1008.6
2018-06-09T10:53:18.762Z,1008.6
2018-06-09T10:54:28.702Z,1008.57
2018-06-09T10:55:38.116Z,1008.55
2018-06-09T10:56:47.528Z,1008.57
2018-06-09T10:57:56.944Z,1008.57
2018-06-09T10:59:06.376Z,1008.59
2018-06-09T11:00:15.818Z,1008.55
2018-06-09T11:01:24.979Z,1008.53
2018-06-09T11:02:34.417Z,1008.53
2018-06-09T11:03:43.468Z,1008.55
2018-06-09T11:04:52.627Z,1008.58
2018-06-09T11:06:02.036Z,1008.52
2018-06-09T11:07:11.005Z,1008.51
2018-06-09T11:08:20.444Z,1008.53
2018-06-09T11:09:30.161Z,1008.53
2018-06-09T11:10:39.409Z,1008.5
2018-06-09T11:11:49.559Z,1008.47
2018-06-09T11:12:59.647Z,1008.49
2018-06-09T11:14:09.082Z,1008.48
2018-06-09T11:15:18.539Z,1008.5
2018-06-09T11:16:27.998Z,1008.46
2018-06-09T11:17:37.153Z,1008.46
2018-06-09T11:18:46.601Z,1008.43
2018-06-09T11:19:56.061Z,1008.43
2018-06-09T11:21:05.497Z,1008.44
2018-06-09T11:22:14.922Z,1008.38
2018-06-09T11:23:23.820Z,1008.38
2018-06-09T11:24:33.019Z,1008.38
2018-06-09T11:25:42.679Z,1008.36
2018-06-09T11:26:51.573Z,1008.32
2018-06-09T11:28:01.251Z,1008.31
2018-06-09T11:29:10.941Z,1008.36
2018-06-09T11:30:19.853Z,1008.3
2018-06-09T11:31:29.556Z,1008.32
2018-06-09T11:32:38.960Z,1008.31
2018-06-09T11:33:48.615Z,1008.31
2018-06-09T11:34:57.779Z,1008.31
2018-06-09T11:36:07.720Z,1008.31
2018-06-09T11:37:17.176Z,1008.29
2018-06-09T11:38:27.108Z,1008.27
2018-06-09T11:39:36.538Z,1008.32
2018-06-09T11:40:45.961Z,1008.31
2018-06-09T11:41:55.392Z,1008.27
2018-06-09T11:43:05.095Z,1008.26
2018-06-09T11:44:14.248Z,1008.23
2018-06-09T11:45:23.748Z,1008.22
2018-06-09T11:46:33.161Z,1008.23
2018-06-09T11:47:42.867Z,1008.22
2018-06-09T11:48:53.224Z,1008.22
2018-06-09T11:50:02.744Z,1008.19
2018-06-09T11:51:12.469Z,1008.19
2018-06-09T11:52:22.158Z,1008.19
2018-06-09T11:53:32.105Z,1008.18
2018-06-09T11:54:41.267Z,1008.15
2018-06-09T11:55:50.727Z,1008.12
2018-06-09T11:57:00.142Z,1008.13
2018-06-09T11:58:09.579Z,1008.15
2018-06-09T11:59:19.004Z,1008.16
2018-06-09T12:00:28.183Z,1008.12
2018-06-09T12:01:37.370Z,1008.12
2018-06-09T12:02:47.143Z,1008.14
2018-06-09T12:03:57.081Z,1008.07
2018-06-09T12:05:05.981Z,1008.1
2018-06-09T12:06:15.143Z,1008.11
2018-06-09T12:07:24.553Z,1008.06
2018-06-09T12:08:33.735Z,1008.06
2018-06-09T12:09:43.829Z,1008.08
2018-06-09T12:10:53.266Z,1008.05
2018-06-09T12:12:02.716Z,1008.04
2018-06-09T12:13:12.171Z,1008.04
2018-06-09T12:14:21.842Z,1008.09
2018-06-09T12:15:30.744Z,1008.07
2018-06-09T12:16:40.159Z,1008.07
2018-06-09T12:17:49.853Z,1008.07
2018-06-09T12:18:58.749Z,1008.06
2018-06-09T12:20:08.422Z,1008.05
2018-06-09T12:21:17.841Z,1008.06
2018-06-09T12:22:27.277Z,1008.07
2018-06-09T12:23:36.977Z,1008
2018-06-09T12:24:46.665Z,1008.02
2018-06-09T12:25:55.852Z,1008.06
2018-06-09T12:27:05.330Z,1008.02
2018-06-09T12:28:15.194Z,1008
2018-06-09T12:29:25.418Z,1007.98
2018-06-09T12:30:35.401Z,1008
2018-06-09T12:31:44.833Z,1008
2018-06-09T12:32:54.238Z,1008.05
2018-06-09T12:34:04.014Z,1008.04
2018-06-09T12:35:13.444Z,1007.97
2018-06-09T12:36:22.869Z,1007.97
2018-06-09T12:37:33.111Z,1008
2018-06-09T12:38:42.536Z,1008.01
2018-06-09T12:39:51.721Z,1008.02
2018-06-09T12:41:00.896Z,1008.01
2018-06-09T12:42:10.358Z,1008.09
2018-06-09T12:43:19.537Z,1007.99
2018-06-09T12:44:29.844Z,1007.94
2018-06-09T12:45:40.325Z,1008.01
2018-06-09T12:46:51.543Z,1007.99
2018-06-09T12:48:00.959Z,1007.94
2018-06-09T12:49:10.397Z,1007.94
2018-06-09T12:50:19.309Z,1007.94
2018-06-09T12:51:28.999Z,1007.95
2018-06-09T12:52:38.268Z,1007.95
2018-06-09T12:53:47.556Z,1007.95
2018-06-09T12:54:56.844Z,1007.93
2018-06-09T12:56:06.299Z,1007.91
2018-06-09T12:57:15.868Z,1007.87
2018-06-09T12:58:25.377Z,1007.85
2018-06-09T12:59:35.103Z,1007.83
2018-06-09T13:00:44.532Z,1007.81
2018-06-09T13:01:54.476Z,1007.84
2018-06-09T13:03:04.170Z,1007.78
2018-06-09T13:04:13.376Z,1007.81
2018-06-09T13:05:22.837Z,1007.76
2018-06-09T13:06:32.291Z,1007.7
2018-06-09T13:07:41.455Z,1007.74
2018-06-09T13:08:50.625Z,1007.72
2018-06-09T13:10:00.321Z,1007.68
2018-06-09T13:11:10.046Z,1007.75
2018-06-09T13:12:19.734Z,1007.73
2018-06-09T13:13:28.634Z,1007.65
2018-06-09T13:14:37.815Z,1007.66
2018-06-09T13:15:47.091Z,1007.66
2018-06-09T13:16:56.833Z,1007.64
2018-06-09T13:18:06.276Z,1007.6
2018-06-09T13:19:15.466Z,1007.58
2018-06-09T13:20:24.645Z,1007.65
2018-06-09T13:21:33.810Z,1007.56
2018-06-09T13:22:43.482Z,1007.53
2018-06-09T13:23:52.917Z,1007.53
2018-06-09T13:25:02.337Z,1007.5
2018-06-09T13:26:11.493Z,1007.47
2018-06-09T13:27:20.681Z,1007.45
2018-06-09T13:28:30.367Z,1007.44
2018-06-09T13:29:39.528Z,1007.44
2018-06-09T13:30:49.483Z,1007.38
2018-06-09T13:31:58.657Z,1007.39
2018-06-09T13:33:08.349Z,1007.42
2018-06-09T13:34:18.287Z,1007.35
2018-06-09T13:35:27.432Z,1007.33
2018-06-09T13:36:37.104Z,1007.34
2018-06-09T13:37:46.802Z,1007.33
2018-06-09T13:38:56.221Z,1007.31
2018-06-09T13:40:05.384Z,1007.28
2018-06-09T13:41:14.304Z,1007.27
2018-06-09T13:42:24.251Z,1007.28
2018-06-09T13:43:33.159Z,1007.27
2018-06-09T13:44:42.607Z,1007.24
2018-06-09T13:45:52.297Z,1007.24
2018-06-09T13:47:01.751Z,1007.2
2018-06-09T13:48:11.243Z,1007.2
2018-06-09T13:49:20.914Z,1007.15
2018-06-09T13:50:30.338Z,1007.26
2018-06-09T13:51:39.769Z,1007.18
2018-06-09T13:52:49.464Z,1007.18
2018-06-09T13:53:58.618Z,1007.14
2018-06-09T13:55:08.341Z,1007.15
2018-06-09T13:56:18.005Z,1007.14
2018-06-09T13:57:27.433Z,1007.14
2018-06-09T13:58:36.636Z,1007.13
2018-06-09T13:59:46.089Z,1007.06
2018-06-09T14:00:56.056Z,1007.1
2018-06-09T14:02:05.502Z,1007.07
2018-06-09T14:03:14.928Z,1007.09